Aviation Digital Data Service (ADDS)

Output produced by METARs form (2157 UTC 01 December 2021)
found at http://aviationweather.gov/metar/data/
 
KTYR 011720Z 0118/0218 23013G20KT P6SM SKC 
     FM020000 22004KT P6SM SKC